Time;durP1;ratioP1;P1;durP2;ratioP2;P2;SDS_P1;SDS_P2;PMS_P1;PMS_P2;Temp;Humidity;BMP_temperature;BMP_pressure;BME280_temperature;BME280_humidity;BME280_pressure;Samples;Min_cycle;Max_cycle;Signal;HPM_P1;HPM_P2
2021/03/10 00:00:21;;;;;;;17.60;15.67;;;;;;;6.02;69.44;95685.63;5055847;28;20892;-82
2021/03/10 00:02:47;;;;;;;18.23;16.33;;;;;;;6.05;69.03;95690.47;5051686;28;20272;-84
2021/03/10 00:05:14;;;;;;;18.53;15.63;;;;;;;6.00;69.63;95681.63;5037127;28;20724;-83
2021/03/10 00:07:40;;;;;;;17.10;15.30;;;;;;;6.02;68.85;95687.38;5057045;28;20220;-82
2021/03/10 00:10:07;;;;;;;19.07;16.37;;;;;;;6.04;69.75;95677.84;5056707;28;20279;-83
2021/03/10 00:12:34;;;;;;;19.10;15.77;;;;;;;6.05;69.12;95674.31;5056148;28;20255;-83
2021/03/10 00:15:00;;;;;;;18.87;16.83;;;;;;;6.05;69.40;95679.44;5056339;28;20225;-82
2021/03/10 00:17:27;;;;;;;17.60;15.70;;;;;;;6.06;69.58;95683.59;5052173;28;20702;-82
2021/03/10 00:19:53;;;;;;;18.00;16.17;;;;;;;6.10;69.10;95687.47;5056782;28;20252;-81
2021/03/10 00:22:19;;;;;;;19.27;16.30;;;;;;;6.11;69.08;95684.78;5056519;28;20716;-83
2021/03/10 00:24:48;;;;;;;18.63;16.73;;;;;;;6.02;70.09;95698.41;5056928;28;20229;-84
2021/03/10 00:27:23;;;;;;;17.80;15.90;;;;;;;6.02;69.69;95697.63;5058019;28;20244;-82
2021/03/10 00:29:50;;;;;;;18.20;16.30;;;;;;;5.96;69.71;95695.66;5057090;28;20232;-83
2021/03/10 00:32:16;;;;;;;19.07;17.17;;;;;;;5.98;69.63;95693.75;5057890;28;20208;-83
2021/03/10 00:34:43;;;;;;;18.23;16.27;;;;;;;5.92;69.71;95696.91;5057905;28;20205;-82
2021/03/10 00:37:09;;;;;;;18.93;16.67;;;;;;;5.90;70.31;95694.47;5053396;28;20224;-82
2021/03/10 00:39:37;;;;;;;19.87;17.77;;;;;;;5.81;70.97;95698.66;5040041;28;20709;-82
2021/03/10 00:42:05;;;;;;;20.27;18.07;;;;;;;5.82;70.61;95702.03;5045356;28;20221;-82
2021/03/10 00:44:31;;;;;;;20.53;18.10;;;;;;;5.78;70.34;95698.94;5056092;28;20247;-83
2021/03/10 00:46:57;;;;;;;20.53;18.13;;;;;;;5.79;70.43;95704.84;5040941;28;20198;-81
2021/03/10 00:49:23;;;;;;;23.10;18.77;;;;;;;5.77;70.69;95702.44;5053934;28;20237;-81
2021/03/10 00:51:50;;;;;;;19.90;17.30;;;;;;;5.73;71.16;95698.59;5055133;28;20231;-82
2021/03/10 00:54:16;;;;;;;21.93;18.57;;;;;;;5.73;70.55;95695.22;5055129;28;20615;-82
2021/03/10 00:56:42;;;;;;;19.77;17.63;;;;;;;5.75;70.59;95698.44;5050933;28;20234;-82
2021/03/10 00:59:07;;;;;;;20.03;17.93;;;;;;;5.74;70.92;95694.28;5036191;28;20280;-81
2021/03/10 01:04:47;;;;;;;20.53;18.33;;;;;;;5.75;71.04;95693.34;5050341;28;20221;-81
2021/03/10 01:10:50;;;;;;;;;;;;;;;;;;;;;
2021/03/10 01:13:17;;;;;;;20.13;17.90;;;;;;;5.59;72.34;95691.41;5020132;28;20226;-84
2021/03/10 01:15:43;;;;;;;21.03;18.33;;;;;;;5.61;72.15;95676.72;5019573;28;20748;-82
2021/03/10 01:18:09;;;;;;;20.20;18.03;;;;;;;5.62;72.29;95691.13;5034604;28;20257;-82
2021/03/10 01:20:35;;;;;;;19.37;17.27;;;;;;;5.63;72.15;95684.25;5033848;28;20226;-82
2021/03/10 01:23:01;;;;;;;20.77;18.20;;;;;;;5.64;71.67;95681.56;5035130;28;20229;-81
2021/03/10 01:25:28;;;;;;;21.73;18.93;;;;;;;5.65;71.99;95684.91;5019769;28;20223;-80
2021/03/10 01:27:54;;;;;;;21.00;18.23;;;;;;;5.68;71.49;95675.22;5014630;28;20235;-84
2021/03/10 01:30:22;;;;;;;20.33;18.17;;;;;;;5.66;71.73;95672.00;5014571;28;20740;-82
2021/03/10 01:32:48;;;;;;;21.67;17.73;;;;;;;5.59;72.77;95670.16;5015508;28;20230;-84
2021/03/10 01:35:14;;;;;;;21.93;18.37;;;;;;;5.54;72.47;95670.63;5014961;28;20580;-81
2021/03/10 01:37:40;;;;;;;19.87;17.77;;;;;;;5.55;72.71;95665.38;5015953;28;20712;-81
2021/03/10 01:40:11;;;;;;;21.37;19.03;;;;;;;5.57;72.44;95665.22;5014676;28;20291;-83
2021/03/10 01:42:38;;;;;;;20.67;17.90;;;;;;;5.60;72.53;95667.47;5030988;28;20230;-84
2021/03/10 01:45:06;;;;;;;22.83;18.10;;;;;;;5.60;72.95;95667.47;5034985;28;20709;-83
2021/03/10 01:47:33;;;;;;;20.60;18.40;;;;;;;5.58;73.03;95664.25;5034230;28;20287;-82
2021/03/10 01:50:04;;;;;;;20.80;18.60;;;;;;;5.54;73.12;95668.06;5035488;28;20590;-83
2021/03/10 01:52:30;;;;;;;21.07;18.87;;;;;;;5.52;72.93;95665.66;5035002;28;20225;-82
2021/03/10 01:54:56;;;;;;;21.97;19.20;;;;;;;5.53;73.35;95662.16;5034670;28;20232;-83
2021/03/10 01:57:22;;;;;;;19.40;17.30;;;;;;;5.57;72.97;95666.97;5035371;28;20237;-83
2021/03/10 01:59:50;;;;;;;22.83;19.10;;;;;;;5.60;72.71;95662.34;5034063;28;20613;-82
2021/03/10 02:02:16;;;;;;;20.77;18.30;;;;;;;5.52;73.04;95655.44;5034451;28;20198;-81
2021/03/10 02:04:42;;;;;;;20.53;18.33;;;;;;;5.51;73.75;95658.13;5035000;28;20716;-81
2021/03/10 02:07:12;;;;;;;21.03;18.50;;;;;;;5.51;73.54;95655.56;5032369;28;20249;-81
2021/03/10 02:09:50;;;;;;;22.67;19.60;;;;;;;5.49;73.96;95654.91;5014768;28;20603;-80
2021/03/10 02:12:25;;;;;;;21.17;18.87;;;;;;;5.41;74.19;95658.16;5015944;28;20729;-83
2021/03/10 02:14:59;;;;;;;21.00;18.27;;;;;;;5.31;74.54;95652.31;5016046;28;20253;-82
2021/03/10 02:17:29;;;;;;;20.87;18.63;;;;;;;5.37;73.72;95654.31;5035083;28;20217;-81
2021/03/10 02:20:12;;;;;;;22.10;19.73;;;;;;;5.41;74.24;95647.16;5035445;28;20217;-84
2021/03/10 02:22:52;;;;;;;21.63;18.67;;;;;;;5.40;74.12;95645.53;5035134;28;20803;-83
2021/03/10 02:25:32;;;;;;;21.00;18.70;;;;;;;5.33;74.35;95640.22;5034545;28;20233;-81
2021/03/10 02:28:01;;;;;;;21.80;19.40;;;;;;;5.34;74.68;95651.25;5034036;28;20226;-80
2021/03/10 02:30:30;;;;;;;22.43;19.57;;;;;;;5.43;73.59;95643.50;5033422;28;20585;-80
2021/03/10 02:33:01;;;;;;;22.23;19.83;;;;;;;5.30;74.38;95637.16;5033404;28;20235;-83
2021/03/10 02:35:30;;;;;;;23.10;19.83;;;;;;;5.35;73.77;95642.63;5034011;28;20206;-81
2021/03/10 02:37:59;;;;;;;22.33;19.10;;;;;;;5.40;74.30;95645.53;5035152;28;20276;-84
2021/03/10 02:40:27;;;;;;;24.17;19.93;;;;;;;5.42;74.42;95643.66;5033564;28;20600;-83
2021/03/10 02:42:55;;;;;;;23.77;20.27;;;;;;;5.41;74.47;95649.69;5033935;28;20226;-81
2021/03/10 02:45:23;;;;;;;23.63;20.37;;;;;;;5.37;74.98;95643.31;5035437;28;20226;-83
2021/03/10 02:47:50;;;;;;;23.13;20.00;;;;;;;5.39;74.57;95649.84;5038026;28;20229;-83
2021/03/10 02:50:17;;;;;;;23.80;20.93;;;;;;;5.36;74.36;95650.16;5037615;28;20222;-82
2021/03/10 02:52:43;;;;;;;22.83;19.90;;;;;;;5.37;74.50;95654.31;5037743;28;20205;-82
2021/03/10 02:55:10;;;;;;;22.97;19.80;;;;;;;5.24;75.18;95650.47;5038049;28;20230;-80
2021/03/10 02:57:37;;;;;;;23.23;20.77;;;;;;;5.32;74.83;95653.13;5038799;28;20241;-81
2021/03/10 03:00:07;;;;;;;22.80;20.27;;;;;;;5.32;75.38;95642.91;5038018;28;20233;-84
2021/03/10 03:02:35;;;;;;;22.33;19.90;;;;;;;5.34;74.69;95639.28;5039068;28;20284;-81
2021/03/10 03:05:02;;;;;;;24.03;20.87;;;;;;;5.33;74.92;95644.53;5038233;28;20210;-82
2021/03/10 03:07:28;;;;;;;23.30;20.70;;;;;;;5.31;74.83;95648.97;5032563;28;20729;-80
2021/03/10 03:09:54;;;;;;;23.10;20.37;;;;;;;5.24;75.71;95646.16;5017875;28;20241;-81
2021/03/10 03:12:20;;;;;;;24.50;21.67;;;;;;;5.31;74.73;95648.97;5017663;28;20231;-82
2021/03/10 03:14:47;;;;;;;23.97;20.77;;;;;;;5.31;75.04;95654.06;5018237;28;20226;-82
2021/03/10 03:17:15;;;;;;;27.23;20.73;;;;;;;5.35;74.98;95650.28;5036948;28;20222;-84
2021/03/10 03:19:42;;;;;;;24.80;22.10;;;;;;;5.37;74.70;95648.41;5037895;28;20234;-81
2021/03/10 03:22:08;;;;;;;23.20;20.63;;;;;;;5.28;75.60;95662.00;5037324;28;20287;-84
2021/03/10 03:24:35;;;;;;;25.23;21.30;;;;;;;5.35;74.81;95660.50;5037616;28;20586;-81
2021/03/10 03:27:02;;;;;;;23.80;21.23;;;;;;;5.32;75.08;95658.22;5037521;28;20237;-84
2021/03/10 03:29:31;;;;;;;24.37;21.83;;;;;;;5.34;74.98;95659.69;5037000;28;20670;-84
2021/03/10 03:31:58;;;;;;;25.20;21.60;;;;;;;5.34;75.21;95666.56;5036823;28;20213;-83
2021/03/10 03:34:25;;;;;;;24.60;21.67;;;;;;;5.34;75.61;95661.44;5036522;28;20283;-82
2021/03/10 03:36:52;;;;;;;25.03;21.97;;;;;;;5.28;75.54;95670.47;5036124;28;20230;-83
2021/03/10 03:39:18;;;;;;;25.30;22.60;;;;;;;5.32;75.15;95673.56;5035423;28;20248;-83
2021/03/10 03:41:46;;;;;;;26.13;22.87;;;;;;;5.36;75.67;95665.47;5036641;28;20236;-83
2021/03/10 03:44:12;;;;;;;25.53;22.77;;;;;;;5.40;75.55;95663.41;5035812;28;20243;-81
2021/03/10 03:46:38;;;;;;;25.43;22.70;;;;;;;5.40;75.09;95681.28;5036740;28;20572;-82
2021/03/10 03:49:04;;;;;;;26.20;22.93;;;;;;;5.44;74.81;95670.66;5035913;28;20240;-80
2021/03/10 03:51:32;;;;;;;26.10;23.37;;;;;;;5.41;75.01;95668.38;5036542;28;20253;-82
2021/03/10 03:54:00;;;;;;;26.57;22.57;;;;;;;5.38;75.32;95680.66;5036223;28;20287;-82
2021/03/10 03:56:27;;;;;;;26.07;22.47;;;;;;;5.39;75.64;95675.38;5035468;28;20608;-81
2021/03/10 03:58:53;;;;;;;26.97;22.43;;;;;;;5.36;75.25;95670.56;5037054;28;20724;-82
2021/03/10 04:01:19;;;;;;;25.90;23.10;;;;;;;5.39;75.64;95672.00;5035792;28;20229;-83
2021/03/10 04:03:46;;;;;;;25.63;22.83;;;;;;;5.40;75.39;95682.09;5037161;28;20228;-81
2021/03/10 04:06:12;;;;;;;26.30;23.17;;;;;;;5.34;76.02;95682.69;5036690;28;20236;-80
2021/03/10 04:08:38;;;;;;;25.83;23.03;;;;;;;5.40;75.59;95674.44;5023134;28;20241;-81
2021/03/10 04:11:06;;;;;;;26.33;23.53;;;;;;;5.38;75.63;95685.75;5017140;28;20709;-80
2021/03/10 04:13:32;;;;;;;28.13;24.07;;;;;;;5.40;75.54;95689.75;5017301;28;20226;-82
2021/03/10 04:15:58;;;;;;;29.80;24.37;;;;;;;5.45;75.85;95689.31;5025578;28;20222;-80
2021/03/10 04:18:24;;;;;;;29.77;24.77;;;;;;;5.45;75.23;95685.03;5036103;28;20230;-81
2021/03/10 04:20:50;;;;;;;27.97;23.77;;;;;;;5.46;75.59;95678.97;5036028;28;20310;-82
2021/03/10 04:23:17;;;;;;;27.87;24.20;;;;;;;5.40;75.89;95682.09;5036259;28;20232;-80
2021/03/10 04:25:43;;;;;;;26.47;23.67;;;;;;;5.35;75.69;95688.59;5036736;28;20206;-83
2021/03/10 04:28:10;;;;;;;27.13;23.63;;;;;;;5.33;76.28;95683.63;5036516;28;20347;-81
2021/03/10 04:30:36;;;;;;;27.30;24.00;;;;;;;5.38;75.73;95680.66;5036257;28;20286;-81
2021/03/10 04:33:02;;;;;;;28.13;24.67;;;;;;;5.39;75.66;95680.47;5035713;28;20853;-84
2021/03/10 04:35:28;;;;;;;29.83;24.40;;;;;;;5.39;76.13;95690.69;5035494;28;20206;-82
2021/03/10 04:37:54;;;;;;;28.17;24.30;;;;;;;5.47;75.77;95693.34;5036109;28;20246;-81
2021/03/10 04:40:21;;;;;;;29.37;24.93;;;;;;;5.50;75.41;95698.19;5035432;28;20232;-82
2021/03/10 04:42:47;;;;;;;29.50;25.33;;;;;;;5.50;75.16;95687.97;5035461;28;20229;-82
2021/03/10 04:45:15;;;;;;;29.83;25.70;;;;;;;5.51;75.65;95693.88;5034838;28;20229;-80
2021/03/10 04:47:41;;;;;;;31.17;26.20;;;;;;;5.51;75.42;95699.78;5036735;28;20225;-84
2021/03/10 04:50:09;;;;;;;28.77;25.37;;;;;;;5.53;75.20;95703.00;5036774;28;20229;-81
2021/03/10 04:52:35;;;;;;;28.27;24.17;;;;;;;5.51;75.56;95702.34;5036153;28;20218;-83
2021/03/10 04:55:01;;;;;;;29.07;24.63;;;;;;;5.51;75.16;95710.00;5036947;28;20717;-84
2021/03/10 04:57:27;;;;;;;32.20;26.00;;;;;;;5.48;75.98;95710.28;5035293;28;20675;-81
2021/03/10 04:59:53;;;;;;;30.17;26.57;;;;;;;5.47;75.90;95715.53;5035372;28;20234;-83
2021/03/10 05:02:20;;;;;;;29.93;26.03;;;;;;;5.46;75.91;95711.38;5036499;28;20371;-84
2021/03/10 05:04:46;;;;;;;29.60;24.93;;;;;;;5.47;75.68;95715.53;5037310;28;20798;-83
2021/03/10 05:07:12;;;;;;;29.40;26.20;;;;;;;5.48;76.20;95719.69;5034196;28;20274;-83
2021/03/10 05:09:38;;;;;;;29.03;25.93;;;;;;;5.46;75.90;95719.81;5016000;28;20253;-83
2021/03/10 05:12:05;;;;;;;29.03;25.73;;;;;;;5.46;75.91;95713.91;5016758;28;20230;-82
2021/03/10 05:14:31;;;;;;;28.47;25.07;;;;;;;5.44;76.00;95718.34;5016398;28;20615;-84
2021/03/10 05:16:57;;;;;;;28.13;24.93;;;;;;;5.42;76.33;95713.38;5034208;28;20221;-85
2021/03/10 05:19:24;;;;;;;29.93;26.67;;;;;;;5.41;76.44;95716.09;5035833;28;20728;-83
2021/03/10 05:21:50;;;;;;;31.23;25.70;;;;;;;5.44;76.15;95731.13;5036036;28;20229;-81
2021/03/10 05:24:16;;;;;;;31.63;26.03;;;;;;;5.41;76.29;95723.75;5036627;28;20230;-85
2021/03/10 05:26:42;;;;;;;32.33;26.37;;;;;;;5.44;75.95;95723.47;5035563;28;20226;-84
2021/03/10 05:29:09;;;;;;;31.17;26.93;;;;;;;5.44;76.04;95724.28;5036557;28;20222;-83
2021/03/10 05:31:35;;;;;;;30.07;26.47;;;;;;;5.47;76.86;95723.19;5035751;28;20249;-84
2021/03/10 05:34:01;;;;;;;30.00;26.40;;;;;;;5.48;76.19;95722.25;5036398;28;20230;-83
2021/03/10 05:36:27;;;;;;;33.50;27.07;;;;;;;5.46;75.85;95730.03;5036120;28;20230;-81
2021/03/10 05:38:53;;;;;;;33.23;26.43;;;;;;;5.42;76.65;95733.00;5036425;28;20691;-83
2021/03/10 05:41:20;;;;;;;31.40;26.27;;;;;;;5.41;76.44;95732.22;5035827;28;20232;-83
2021/03/10 05:43:47;;;;;;;31.10;26.47;;;;;;;5.40;76.62;95733.16;5035987;28;20255;-83
2021/03/10 05:46:14;;;;;;;30.77;26.10;;;;;;;5.41;76.21;95728.84;5036002;28;20438;-82
2021/03/10 05:48:40;;;;;;;29.07;25.90;;;;;;;5.44;75.92;95729.38;5035199;28;20234;-86
2021/03/10 05:51:06;;;;;;;32.37;25.93;;;;;;;5.44;76.40;95736.22;5028606;28;20337;-83
2021/03/10 05:53:37;;;;;;;30.30;25.13;;;;;;;5.46;76.07;95730.03;5029066;28;20268;-83
2021/03/10 05:56:05;;;;;;;28.87;25.37;;;;;;;5.43;76.21;95739.72;5017396;28;20210;-83
2021/03/10 05:58:32;;;;;;;31.03;25.53;;;;;;;5.32;77.29;95747.56;5028798;28;20281;-83
2021/03/10 06:00:58;;;;;;;28.33;24.77;;;;;;;5.30;76.68;95744.34;5027215;28;20237;-84
2021/03/10 06:03:24;;;;;;;31.07;25.57;;;;;;;5.32;76.87;95735.63;5014596;28;20230;-84
2021/03/10 06:05:59;;;;;;;31.23;26.17;;;;;;;5.37;76.84;95743.66;5014984;28;20227;-79
2021/03/10 06:08:31;;;;;;;28.87;24.73;;;;;;;5.39;76.39;95746.84;5014732;28;20244;-81
2021/03/10 06:10:58;;;;;;;29.23;23.93;;;;;;;5.36;77.06;95736.97;5015137;28;20360;-81
2021/03/10 06:13:25;;;;;;;28.23;25.00;;;;;;;5.38;76.65;95742.72;5014830;28;20257;-85
2021/03/10 06:15:53;;;;;;;29.30;25.23;;;;;;;5.39;76.72;95734.09;5022914;28;20222;-81
2021/03/10 06:18:25;;;;;;;29.20;25.30;;;;;;;5.24;77.13;95740.59;5034019;28;20241;-83
2021/03/10 06:21:03;;;;;;;30.07;24.30;;;;;;;5.23;77.77;95746.66;5036173;28;20311;-82
2021/03/10 06:23:29;;;;;;;29.20;25.47;;;;;;;5.28;77.30;95747.06;5037954;28;20182;-83
2021/03/10 06:25:55;;;;;;;33.47;27.60;;;;;;;5.21;78.44;95762.09;5038315;28;20202;-83
2021/03/10 06:28:24;;;;;;;34.43;28.47;;;;;;;5.29;77.45;95761.41;5040758;28;20709;-82
2021/03/10 06:30:50;;;;;;;30.87;26.47;;;;;;;5.34;77.76;95764.38;5037816;28;20232;-81
2021/03/10 06:33:21;;;;;;;30.10;25.90;;;;;;;5.36;77.43;95761.69;5039199;28;20233;-84
2021/03/10 06:35:47;;;;;;;31.50;25.77;;;;;;;5.40;77.41;95751.03;5041308;28;20229;-84
2021/03/10 06:38:14;;;;;;;30.50;25.97;;;;;;;5.43;76.47;95760.97;5042151;28;20598;-85
2021/03/10 06:40:56;;;;;;;30.47;26.03;;;;;;;5.47;76.47;95766.59;5041949;28;20210;-83
2021/03/10 06:43:34;;;;;;;33.90;26.20;;;;;;;5.43;77.72;95763.50;5042354;28;20233;-84
2021/03/10 06:46:12;;;;;;;31.53;26.17;;;;;;;5.38;77.67;95770.00;5041916;28;20732;-84
2021/03/10 06:48:55;;;;;;;29.70;25.43;;;;;;;5.44;77.18;95780.44;5042990;28;20253;-84
2021/03/10 06:51:22;;;;;;;31.17;25.80;;;;;;;5.37;77.64;95786.25;5043359;28;20229;-84
2021/03/10 06:53:48;;;;;;;30.27;26.00;;;;;;;5.47;76.91;95785.28;5044621;28;20221;-83
2021/03/10 06:56:23;;;;;;;32.83;26.17;;;;;;;5.56;77.43;95796.41;5042810;28;20206;-84
2021/03/10 06:58:59;;;;;;;28.50;25.37;;;;;;;5.48;77.24;95796.28;5040267;28;20304;-84
2021/03/10 07:01:27;;;;;;;29.90;25.60;;;;;;;5.44;77.82;95793.22;5040519;28;20225;-84
2021/03/10 07:03:58;;;;;;;30.77;25.10;;;;;;;5.45;77.28;95794.81;5039961;28;20226;-84
2021/03/10 07:06:25;;;;;;;30.33;25.87;;;;;;;5.49;76.82;95795.34;5040144;28;20229;-84
2021/03/10 07:08:53;;;;;;;29.03;24.87;;;;;;;5.50;77.39;95796.97;5027828;28;20239;-84
2021/03/10 07:11:23;;;;;;;24.23;21.03;;;;;;;5.79;82.29;95795.06;5026432;28;20199;-85
2021/03/10 07:13:49;;;;;;;23.57;20.33;;;;;;;6.08;81.92;95797.53;5035079;28;20202;-82
2021/03/10 07:16:18;;;;;;;26.70;23.83;;;;;;;5.97;75.43;95799.47;5037988;28;20230;-84
2021/03/10 07:18:46;;;;;;;28.50;25.40;;;;;;;5.88;75.27;95804.50;5018426;28;20237;-82
2021/03/10 07:21:21;;;;;;;30.80;26.40;;;;;;;5.85;75.99;95812.41;5017097;28;20234;-82
2021/03/10 07:23:50;;;;;;;29.70;25.53;;;;;;;5.66;76.87;95827.00;5018060;28;20226;-84
2021/03/10 07:26:18;;;;;;;30.97;26.10;;;;;;;5.67;76.72;95818.41;5031103;28;20194;-84
2021/03/10 07:28:49;;;;;;;28.50;24.60;;;;;;;5.70;75.85;95815.56;5039729;28;20238;-82
2021/03/10 07:31:21;;;;;;;28.13;25.10;;;;;;;5.61;76.69;95812.09;5037643;28;20222;-84
2021/03/10 07:33:51;;;;;;;30.07;25.70;;;;;;;5.55;77.63;95810.94;5037892;28;20240;-84
2021/03/10 07:36:18;;;;;;;28.57;24.70;;;;;;;5.59;77.61;95821.66;5038521;28;20244;-84
2021/03/10 07:38:46;;;;;;;31.23;25.20;;;;;;;5.71;76.72;95828.22;5040426;28;20230;-84
2021/03/10 07:41:13;;;;;;;30.07;24.90;;;;;;;5.66;76.80;95834.66;5041642;28;20224;-83
2021/03/10 07:43:42;;;;;;;29.20;25.40;;;;;;;5.69;76.69;95837.75;5024328;28;20219;-84
2021/03/10 07:46:32;;;;;;;40.97;32.90;;;;;;;5.79;76.63;95843.63;5018974;28;20231;-84
2021/03/10 07:49:07;;;;;;;31.83;25.13;;;;;;;5.91;76.68;95844.28;5018544;28;20238;-83
2021/03/10 07:51:52;;;;;;;30.93;24.57;;;;;;;6.03;77.12;95847.47;5017819;28;20234;-83
2021/03/10 07:54:25;;;;;;;27.80;24.27;;;;;;;6.08;76.23;95845.28;5017641;28;20634;-84
2021/03/10 07:57:07;;;;;;;29.17;24.23;;;;;;;6.01;76.75;95844.22;5017466;28;20222;-84
2021/03/10 08:00:08;;;;;;;28.70;24.03;;;;;;;6.04;76.38;95842.19;5008225;28;21815;-82
2021/03/10 08:03:24;;;;;;;30.13;23.93;;;;;;;6.03;75.87;95850.00;5025783;28;20668;-84
2021/03/10 08:06:18;;;;;;;28.03;24.07;;;;;;;5.98;75.79;95852.97;4958018;28;20719;-83
2021/03/10 08:09:06;;;;;;;28.87;23.80;;;;;;;5.91;75.85;95849.41;5031961;28;20253;-84
2021/03/10 08:11:35;;;;;;;27.13;22.93;;;;;;;6.01;75.61;95849.34;5000444;28;20244;-84
2021/03/10 08:14:01;;;;;;;27.00;24.10;;;;;;;6.03;75.69;95861.03;5050449;28;20202;-82
2021/03/10 08:16:28;;;;;;;29.70;23.90;;;;;;;6.08;75.05;95858.88;5024996;28;20257;-84
2021/03/10 08:18:54;;;;;;;27.00;23.33;;;;;;;6.01;75.64;95859.56;5017946;28;20243;-82
2021/03/10 08:21:21;;;;;;;27.53;23.33;;;;;;;6.01;75.68;95854.47;5017347;28;20218;-84
2021/03/10 08:23:47;;;;;;;26.73;23.23;;;;;;;5.90;75.70;95855.47;5017667;28;20226;-83
2021/03/10 08:26:18;;;;;;;29.80;23.50;;;;;;;5.87;75.98;95858.25;5017438;28;20224;-82
2021/03/10 08:28:44;;;;;;;28.43;24.23;;;;;;;5.87;75.67;95853.16;5017799;28;20230;-83
2021/03/10 08:31:11;;;;;;;26.60;23.23;;;;;;;5.84;76.20;95844.00;5017561;28;20226;-82
2021/03/10 08:33:47;;;;;;;28.03;22.93;;;;;;;5.96;75.93;95851.53;5018490;28;20245;-85
2021/03/10 08:36:13;;;;;;;26.50;23.00;;;;;;;6.01;77.25;95849.34;5018141;28;20778;-84
2021/03/10 08:38:40;;;;;;;29.90;23.07;;;;;;;6.01;77.04;95859.56;5018075;28;20226;-84
2021/03/10 08:41:07;;;;;;;29.57;23.87;;;;;;;5.93;76.93;95855.19;5017549;28;20272;-82
2021/03/10 08:43:33;;;;;;;29.53;23.20;;;;;;;5.94;76.98;95854.25;5017784;28;20230;-83
2021/03/10 08:45:59;;;;;;;29.03;24.07;;;;;;;5.99;76.86;95858.91;5019246;28;20310;-83
2021/03/10 08:48:32;;;;;;;27.40;22.83;;;;;;;6.06;76.50;95863.31;5019753;28;20293;-84
2021/03/10 08:51:00;;;;;;;32.93;23.63;;;;;;;6.00;77.38;95863.88;5018794;28;20253;-84
2021/03/10 08:53:27;;;;;;;26.63;22.87;;;;;;;6.00;77.42;95863.88;5018871;28;20234;-84
2021/03/10 08:55:54;;;;;;;29.90;23.10;;;;;;;6.03;77.09;95867.91;5018292;28;20203;-84
2021/03/10 08:58:20;;;;;;;27.47;22.43;;;;;;;6.08;77.11;95869.09;5018061;28;20231;-82
2021/03/10 09:00:50;;;;;;;28.73;23.33;;;;;;;6.17;76.74;95875.91;5017243;28;20910;-84
2021/03/10 09:03:18;;;;;;;28.73;22.73;;;;;;;6.14;77.34;95875.41;5016808;28;20223;-82
2021/03/10 09:05:46;;;;;;;30.70;23.33;;;;;;;6.18;77.34;95886.94;5016292;28;20231;-84
2021/03/10 09:08:16;;;;;;;26.53;21.63;;;;;;;6.11;76.60;95873.94;5016910;28;20213;-84
2021/03/10 09:10:46;;;;;;;28.37;23.67;;;;;;;6.14;76.54;95870.28;5015420;28;20223;-84
2021/03/10 09:13:15;;;;;;;44.33;34.57;;;;;;;6.20;76.70;95870.50;5015097;28;20238;-82
2021/03/10 09:15:41;;;;;;;29.90;22.73;;;;;;;6.26;76.19;95873.44;5014126;28;20222;-84
2021/03/10 09:18:08;;;;;;;28.13;23.40;;;;;;;6.30;76.20;95875.59;5031851;28;20229;-84
2021/03/10 09:20:35;;;;;;;28.57;23.70;;;;;;;6.30;75.99;95874.78;5034024;28;23045;-84
2021/03/10 09:23:02;;;;;;;28.27;22.80;;;;;;;6.35;75.92;95875.94;5036893;28;20289;-83
2021/03/10 09:25:29;;;;;;;28.77;22.87;;;;;;;6.42;76.18;95874.44;5036200;28;20839;-83
2021/03/10 09:28:06;;;;;;;30.03;23.13;;;;;;;6.38;76.27;95873.09;5035755;28;20256;-83
2021/03/10 09:30:35;;;;;;;27.93;22.33;;;;;;;6.40;75.57;95870.41;5035526;28;20224;-85
2021/03/10 09:33:02;;;;;;;26.40;20.87;;;;;;;6.34;76.01;95873.56;5036642;28;20230;-83
2021/03/10 09:35:30;;;;;;;28.17;22.00;;;;;;;6.34;76.14;95879.47;5036563;28;20665;-84
2021/03/10 09:37:58;;;;;;;26.63;21.70;;;;;;;6.42;75.49;95874.44;5036634;28;20370;-86
2021/03/10 09:40:35;;;;;;;24.80;20.70;;;;;;;6.46;75.57;95877.50;5036439;28;20244;-84
2021/03/10 09:43:03;;;;;;;27.17;21.27;;;;;;;6.47;75.95;95866.34;5035983;28;20225;-83
2021/03/10 09:45:31;;;;;;;25.27;20.87;;;;;;;6.47;75.72;95879.94;5035986;28;20226;-84
2021/03/10 09:47:57;;;;;;;24.73;20.53;;;;;;;6.48;74.71;95873.88;5037534;28;20226;-85
2021/03/10 09:50:25;;;;;;;27.37;21.17;;;;;;;6.38;74.63;95872.28;5037245;28;20222;-83
2021/03/10 09:52:52;;;;;;;24.50;20.40;;;;;;;6.32;75.12;95872.88;5037219;28;20575;-83
2021/03/10 09:55:21;;;;;;;25.40;20.50;;;;;;;6.40;74.51;95881.44;5036324;28;20230;-86
2021/03/10 09:57:47;;;;;;;26.67;20.20;;;;;;;6.47;74.68;95885.03;5037507;28;20230;-85
2021/03/10 10:00:20;;;;;;;25.60;19.97;;;;;;;6.48;74.97;95881.53;5038042;28;20280;-85
2021/03/10 10:02:47;;;;;;;24.43;19.17;;;;;;;6.54;73.89;95875.81;5037524;28;20214;-84
2021/03/10 10:05:23;;;;;;;25.17;19.60;;;;;;;6.64;74.67;95880.09;5038441;28;20210;-85
2021/03/10 10:07:49;;;;;;;23.50;19.83;;;;;;;6.78;74.36;95879.59;5030987;28;20214;-84
2021/03/10 10:10:16;;;;;;;21.67;19.27;;;;;;;6.79;74.01;95876.88;5032658;28;20238;-85
2021/03/10 10:12:43;;;;;;;25.20;20.13;;;;;;;6.86;73.42;95877.91;5038166;28;20230;-83
2021/03/10 10:15:11;;;;;;;20.87;18.67;;;;;;;6.86;72.07;95870.25;5037115;28;20280;-86
2021/03/10 10:17:37;;;;;;;23.67;18.77;;;;;;;6.89;72.78;95867.38;5036495;28;20233;-86
2021/03/10 10:20:25;;;;;;;23.07;19.17;;;;;;;6.81;72.02;95876.72;5037721;28;20218;-85
2021/03/10 10:22:58;;;;;;;21.33;18.63;;;;;;;6.93;71.87;95870.44;5038296;28;20248;-84
2021/03/10 10:25:24;;;;;;;20.80;18.33;;;;;;;7.01;71.70;95872.28;5037409;28;20401;-82
2021/03/10 10:27:51;;;;;;;21.47;18.13;;;;;;;7.03;70.97;95875.50;5036854;28;20268;-85
2021/03/10 10:30:27;;;;;;;20.93;18.20;;;;;;;6.99;70.11;95871.59;5037024;28;20237;-84
2021/03/10 10:32:53;;;;;;;21.10;17.93;;;;;;;6.97;70.92;95863.28;5038090;28;20527;-84
2021/03/10 10:35:20;;;;;;;20.50;17.70;;;;;;;6.98;70.95;95862.31;5031960;28;20229;-85
2021/03/10 10:37:46;;;;;;;34.17;26.00;;;;;;;6.98;70.88;95873.38;5039112;28;20881;-85
2021/03/10 10:40:16;;;;;;;22.57;20.10;;;;;;;6.98;71.32;95870.81;5037107;28;20249;-82
2021/03/10 10:42:42;;;;;;;22.17;17.93;;;;;;;6.98;69.94;95863.13;5037611;28;20225;-84
2021/03/10 10:45:09;;;;;;;20.20;17.63;;;;;;;6.97;71.04;95869.19;5036410;28;20238;-83
2021/03/10 10:47:35;;;;;;;19.73;16.83;;;;;;;7.03;69.14;95871.19;5036610;28;20226;-82
2021/03/10 10:50:04;;;;;;;19.93;17.70;;;;;;;7.04;69.28;95869.41;5037206;28;20743;-84
2021/03/10 10:52:30;;;;;;;22.93;18.13;;;;;;;7.10;69.51;95874.78;5035336;28;20887;-82
2021/03/10 10:54:56;;;;;;;26.70;21.30;;;;;;;7.15;69.19;95867.41;5038403;28;20226;-84
2021/03/10 10:57:23;;;;;;;25.80;21.73;;;;;;;7.17;70.08;95867.28;5036747;28;20405;-83
2021/03/10 10:59:49;;;;;;;21.53;18.93;;;;;;;7.23;70.68;95864.13;5035842;28;20270;-82
2021/03/10 11:02:15;;;;;;;20.70;18.23;;;;;;;7.30;69.83;95867.72;5035632;28;20198;-82
2021/03/10 11:04:41;;;;;;;19.60;17.20;;;;;;;7.31;69.02;95863.41;5036563;28;20206;-84
2021/03/10 11:07:07;;;;;;;20.37;17.70;;;;;;;7.30;68.43;95859.22;5036630;28;20457;-83
2021/03/10 11:09:36;;;;;;;19.00;16.93;;;;;;;7.34;68.31;95857.94;5019256;28;20262;-84
2021/03/10 11:12:02;;;;;;;21.33;17.13;;;;;;;7.41;68.38;95853.84;5018841;28;20225;-84
2021/03/10 11:14:29;;;;;;;17.80;15.90;;;;;;;7.46;67.99;95859.34;5020158;28;20237;-83
2021/03/10 11:16:57;;;;;;;17.93;16.03;;;;;;;7.45;66.35;95862.84;5028056;28;20604;-84
2021/03/10 11:19:23;;;;;;;18.13;16.17;;;;;;;7.40;66.81;95853.03;5039243;28;20600;-85
2021/03/10 11:21:49;;;;;;;18.27;15.90;;;;;;;7.45;67.03;95850.84;5040310;28;20229;-86
2021/03/10 11:24:15;;;;;;;18.80;16.30;;;;;;;7.53;68.26;95852.63;5040577;28;20583;-83
2021/03/10 11:26:41;;;;;;;17.73;15.77;;;;;;;7.61;67.60;95852.69;5039734;28;20222;-85
2021/03/10 11:29:07;;;;;;;17.37;15.07;;;;;;;7.66;66.78;95855.63;5041074;28;20229;-84
2021/03/10 11:31:34;;;;;;;16.23;14.37;;;;;;;7.44;65.76;95848.44;5039465;28;20236;-83
2021/03/10 11:34:00;;;;;;;15.87;13.87;;;;;;;7.30;65.54;95848.97;5040466;28;20226;-82
2021/03/10 11:36:26;;;;;;;16.20;14.53;;;;;;;7.33;65.51;95852.03;5039581;28;20280;-83
2021/03/10 11:38:52;;;;;;;16.43;14.63;;;;;;;7.36;64.34;95838.94;5038493;28;20659;-82